Time;durP1;ratioP1;P1;durP2;ratioP2;P2;SDS_P1;SDS_P2;PMS_P1;PMS_P2;Temp;Humidity;BMP_temperature;BMP_pressure;BME280_temperature;BME280_humidity;BME280_pressure;Samples;Min_cycle;Max_cycle;Signal;HPM_P1;HPM_P2
2022/04/24 00:00:32;;;;;;;4.90;3.42;;;;;;;;;;4938534;29;20475;-64
2022/04/24 00:03:00;;;;;;;3.90;3.15;;;;;;;;;;4937718;29;20083;-64
2022/04/24 00:05:30;;;;;;;4.97;3.80;;;;;;;;;;4938391;29;20051;-64
2022/04/24 00:07:58;;;;;;;3.35;3.05;;;;;;;;;;4937012;29;20082;-64
2022/04/24 00:10:27;;;;;;;3.83;3.42;;;;;;;;;;4937939;29;20071;-64
2022/04/24 00:12:56;;;;;;;15.18;3.63;;;;;;;;;;4937428;29;20066;-64
2022/04/24 00:15:25;;;;;;;6.03;4.13;;;;;;;;;;4938334;29;20051;-65
2022/04/24 00:17:53;;;;;;;6.50;4.05;;;;;;;;;;4937545;29;20039;-64
2022/04/24 00:20:21;;;;;;;8.52;4.88;;;;;;;;;;4937616;29;20059;-64
2022/04/24 00:22:50;;;;;;;8.00;4.93;;;;;;;;;;4937786;29;20050;-64
2022/04/24 00:25:18;;;;;;;5.32;4.38;;;;;;;;;;4937595;29;20079;-64
2022/04/24 00:27:46;;;;;;;9.27;5.13;;;;;;;;;;4937749;29;20047;-65
2022/04/24 00:30:16;;;;;;;14.45;6.45;;;;;;;;;;4937361;29;20063;-63
2022/04/24 00:32:44;;;;;;;7.35;6.75;;;;;;;;;;4938116;29;20122;-63
2022/04/24 00:35:13;;;;;;;13.10;9.45;;;;;;;;;;4937381;29;20060;-64
2022/04/24 00:37:42;;;;;;;14.95;13.30;;;;;;;;;;4937566;29;20138;-64
2022/04/24 00:40:12;;;;;;;24.02;15.07;;;;;;;;;;4937189;29;20052;-63
2022/04/24 00:42:42;;;;;;;17.30;15.32;;;;;;;;;;4937881;29;20111;-63
2022/04/24 00:45:12;;;;;;;16.90;15.38;;;;;;;;;;4937358;29;20052;-64
2022/04/24 00:47:43;;;;;;;17.27;15.73;;;;;;;;;;4936408;29;20052;-64
2022/04/24 00:50:11;;;;;;;17.30;15.77;;;;;;;;;;4936564;29;20484;-64
2022/04/24 00:52:40;;;;;;;16.90;15.30;;;;;;;;;;4937487;29;20082;-64
2022/04/24 00:55:10;;;;;;;14.52;13.25;;;;;;;;;;4937311;29;20052;-64
2022/04/24 00:57:41;;;;;;;13.65;11.77;;;;;;;;;;4936792;29;20051;-64
2022/04/24 01:00:11;;;;;;;9.18;8.00;;;;;;;;;;4937462;29;20451;-64
2022/04/24 01:02:40;;;;;;;9.73;8.82;;;;;;;;;;4936754;29;20055;-64
2022/04/24 01:05:09;;;;;;;13.10;11.02;;;;;;;;;;4937486;29;20075;-65
2022/04/24 01:07:37;;;;;;;10.52;9.63;;;;;;;;;;4935304;29;20048;-65
2022/04/24 01:10:06;;;;;;;11.77;9.13;;;;;;;;;;4937447;29;20051;-65
2022/04/24 01:12:35;;;;;;;8.45;6.97;;;;;;;;;;4937387;29;20059;-64
2022/04/24 01:15:05;;;;;;;10.23;7.20;;;;;;;;;;4937094;29;20139;-64
2022/04/24 01:17:35;;;;;;;8.95;8.13;;;;;;;;;;4937252;29;20059;-64
2022/04/24 01:20:04;;;;;;;9.63;8.73;;;;;;;;;;4939665;29;20058;-64
2022/04/24 01:22:33;;;;;;;9.15;7.28;;;;;;;;;;4941021;29;20411;-64
2022/04/24 01:25:02;;;;;;;8.20;7.50;;;;;;;;;;4940692;29;20043;-64
2022/04/24 01:27:30;;;;;;;10.57;9.57;;;;;;;;;;4940798;29;20492;-64
2022/04/24 01:30:00;;;;;;;12.63;10.88;;;;;;;;;;4940754;29;20055;-65
2022/04/24 01:32:29;;;;;;;13.63;11.38;;;;;;;;;;4941186;29;20082;-64
2022/04/24 01:34:58;;;;;;;12.90;11.70;;;;;;;;;;4940234;29;20047;-64
2022/04/24 01:37:25;;;;;;;11.65;10.48;;;;;;;;;;4940511;29;20519;-65
2022/04/24 01:39:57;;;;;;;13.40;12.05;;;;;;;;;;4940372;29;20055;-65
2022/04/24 01:42:24;;;;;;;12.25;11.18;;;;;;;;;;4940022;29;20055;-64
2022/04/24 01:44:53;;;;;;;12.55;11.15;;;;;;;;;;4940573;29;20135;-64
2022/04/24 01:47:22;;;;;;;11.93;10.70;;;;;;;;;;4940546;29;20055;-64
2022/04/24 01:49:51;;;;;;;12.25;11.13;;;;;;;;;;4940449;29;20048;-64
2022/04/24 01:52:18;;;;;;;13.18;10.23;;;;;;;;;;4939969;29;20051;-63
2022/04/24 01:54:46;;;;;;;13.18;11.90;;;;;;;;;;4940517;29;20134;-63
2022/04/24 01:57:14;;;;;;;11.60;10.60;;;;;;;;;;4940197;29;20047;-63
2022/04/24 01:59:44;;;;;;;11.77;10.38;;;;;;;;;;4940378;29;20056;-64
2022/04/24 02:02:13;;;;;;;10.60;9.27;;;;;;;;;;4940333;29;20515;-64
2022/04/24 02:04:41;;;;;;;9.80;7.95;;;;;;;;;;4940305;29;20071;-64
2022/04/24 02:07:11;;;;;;;9.85;8.95;;;;;;;;;;4940234;29;20082;-64
2022/04/24 02:09:40;;;;;;;10.38;9.48;;;;;;;;;;4939897;29;20047;-64
2022/04/24 02:12:11;;;;;;;9.95;8.95;;;;;;;;;;4940715;29;20051;-64
2022/04/24 02:14:39;;;;;;;9.75;8.85;;;;;;;;;;4940154;29;20075;-64
2022/04/24 02:17:08;;;;;;;9.88;9.07;;;;;;;;;;4939764;29;20083;-64
2022/04/24 02:19:38;;;;;;;9.18;8.38;;;;;;;;;;4939827;29;20135;-64
2022/04/24 02:22:06;;;;;;;8.82;7.93;;;;;;;;;;4939684;29;20106;-64
2022/04/24 02:24:35;;;;;;;19.40;9.52;;;;;;;;;;4939401;29;20133;-64
2022/04/24 02:27:05;;;;;;;10.38;9.27;;;;;;;;;;4939758;29;20052;-64
2022/04/24 02:29:33;;;;;;;8.75;7.95;;;;;;;;;;4939325;29;20044;-65
2022/04/24 02:32:02;;;;;;;8.23;7.25;;;;;;;;;;4939941;29;20073;-64
2022/04/24 02:34:31;;;;;;;6.82;6.22;;;;;;;;;;4939834;29;20059;-64
2022/04/24 02:37:00;;;;;;;7.32;6.00;;;;;;;;;;4939692;29;20043;-65
2022/04/24 02:39:30;;;;;;;8.32;6.45;;;;;;;;;;4939655;29;20052;-64
2022/04/24 02:41:58;;;;;;;8.40;6.65;;;;;;;;;;4939031;29;20063;-63
2022/04/24 02:44:27;;;;;;;8.10;6.53;;;;;;;;;;4939905;29;20074;-63
2022/04/24 02:46:56;;;;;;;7.10;6.43;;;;;;;;;;4939200;29;20388;-63
2022/04/24 02:49:24;;;;;;;7.82;7.13;;;;;;;;;;4939214;29;20416;-64
2022/04/24 02:51:52;;;;;;;9.23;7.03;;;;;;;;;;4938873;29;20056;-64
2022/04/24 02:54:21;;;;;;;8.52;7.22;;;;;;;;;;4939403;29;20047;-64
2022/04/24 02:56:50;;;;;;;7.43;6.72;;;;;;;;;;4939530;29;20048;-65
2022/04/24 02:59:25;;;;;;;8.93;8.02;;;;;;;;;;4939557;29;20099;-64
2022/04/24 03:01:54;;;;;;;7.47;6.78;;;;;;;;;;4939056;29;20483;-65
2022/04/24 03:04:23;;;;;;;6.70;6.10;;;;;;;;;;4939086;29;20506;-65
2022/04/24 03:06:52;;;;;;;7.35;6.65;;;;;;;;;;4939099;29;20039;-64
2022/04/24 03:09:20;;;;;;;7.20;6.50;;;;;;;;;;4938766;29;20073;-64
2022/04/24 03:11:48;;;;;;;8.57;7.10;;;;;;;;;;4939078;29;20052;-64
2022/04/24 03:14:17;;;;;;;8.90;6.53;;;;;;;;;;4938550;29;20567;-65
2022/04/24 03:16:46;;;;;;;7.15;6.35;;;;;;;;;;4938609;29;20044;-65
2022/04/24 03:19:16;;;;;;;8.52;7.22;;;;;;;;;;4938757;29;20127;-65
2022/04/24 03:21:45;;;;;;;7.85;7.15;;;;;;;;;;4938567;29;20123;-65
2022/04/24 03:24:14;;;;;;;9.13;7.18;;;;;;;;;;4938360;29;20052;-65
2022/04/24 03:26:42;;;;;;;9.43;7.72;;;;;;;;;;4938609;29;20134;-64
2022/04/24 03:29:10;;;;;;;7.05;6.25;;;;;;;;;;4938647;29;20070;-63
2022/04/24 03:31:40;;;;;;;6.45;5.72;;;;;;;;;;4938688;29;20047;-64
2022/04/24 03:34:09;;;;;;;7.07;6.40;;;;;;;;;;4938543;29;20058;-64
2022/04/24 03:36:37;;;;;;;7.38;6.70;;;;;;;;;;4938473;29;20499;-64
2022/04/24 03:39:06;;;;;;;6.75;6.13;;;;;;;;;;4938837;29;20055;-64
2022/04/24 03:41:34;;;;;;;8.98;7.05;;;;;;;;;;4936961;29;20474;-63
2022/04/24 03:44:04;;;;;;;7.13;6.53;;;;;;;;;;4938736;29;20059;-64
2022/04/24 03:46:33;;;;;;;7.68;6.97;;;;;;;;;;4937954;29;20050;-64
2022/04/24 03:49:02;;;;;;;8.73;6.15;;;;;;;;;;4938418;29;20055;-64
2022/04/24 03:51:31;;;;;;;6.80;6.10;;;;;;;;;;4937768;29;20051;-65
2022/04/24 03:54:01;;;;;;;6.93;5.20;;;;;;;;;;4937793;29;20052;-64
2022/04/24 03:56:31;;;;;;;10.85;5.13;;;;;;;;;;4938217;29;20052;-64
2022/04/24 03:58:59;;;;;;;6.82;5.18;;;;;;;;;;4938149;29;20048;-64
2022/04/24 04:01:28;;;;;;;6.72;6.10;;;;;;;;;;4937976;29;20484;-64
2022/04/24 04:03:58;;;;;;;5.55;5.05;;;;;;;;;;4937854;29;20054;-64
2022/04/24 04:06:26;;;;;;;7.75;6.25;;;;;;;;;;4938202;29;20040;-63
2022/04/24 04:08:55;;;;;;;5.80;5.28;;;;;;;;;;4937738;29;20048;-63
2022/04/24 04:11:26;;;;;;;8.00;5.55;;;;;;;;;;4937868;29;20047;-65
2022/04/24 04:13:54;;;;;;;7.00;6.28;;;;;;;;;;4937727;29;20052;-65
2022/04/24 04:16:24;;;;;;;9.05;5.63;;;;;;;;;;4938094;29;20103;-63
2022/04/24 04:18:52;;;;;;;6.07;4.95;;;;;;;;;;4937725;29;20043;-63
2022/04/24 04:21:21;;;;;;;4.40;4.00;;;;;;;;;;4937319;29;20051;-65
2022/04/24 04:23:50;;;;;;;3.75;3.35;;;;;;;;;;4938083;29;20075;-64
2022/04/24 04:26:18;;;;;;;3.22;2.92;;;;;;;;;;4937172;29;20087;-64
2022/04/24 04:28:46;;;;;;;3.08;2.78;;;;;;;;;;4937846;29;20475;-64
2022/04/24 04:31:15;;;;;;;6.35;3.67;;;;;;;;;;4937285;29;20051;-65
2022/04/24 04:33:45;;;;;;;3.75;3.00;;;;;;;;;;4938128;29;20134;-65
2022/04/24 04:36:14;;;;;;;4.15;3.03;;;;;;;;;;4937989;29;20043;-64
2022/04/24 04:38:41;;;;;;;5.93;3.58;;;;;;;;;;4938055;29;20043;-65
2022/04/24 04:41:09;;;;;;;4.47;2.95;;;;;;;;;;4937212;29;20091;-65
2022/04/24 04:43:37;;;;;;;5.30;3.05;;;;;;;;;;4937305;29;20058;-65
2022/04/24 04:46:07;;;;;;;2.80;2.60;;;;;;;;;;4937590;29;20463;-65
2022/04/24 04:48:37;;;;;;;2.53;2.33;;;;;;;;;;4937410;29;20052;-65
2022/04/24 04:51:04;;;;;;;5.28;2.65;;;;;;;;;;4937541;29;20050;-65
2022/04/24 04:53:32;;;;;;;3.47;2.42;;;;;;;;;;4940615;29;20090;-64
2022/04/24 04:56:01;;;;;;;3.70;2.60;;;;;;;;;;4943848;29;20058;-65
2022/04/24 04:58:31;;;;;;;4.13;1.70;;;;;;;;;;4943548;29;20554;-65
2022/04/24 05:01:00;;;;;;;6.50;3.60;;;;;;;;;;4943215;29;20065;-65
2022/04/24 05:03:30;;;;;;;2.65;2.10;;;;;;;;;;4959575;29;20051;-65
2022/04/24 05:05:59;;;;;;;4.93;1.77;;;;;;;;;;4942600;28;20127;-64
2022/04/24 05:08:29;;;;;;;1.80;1.48;;;;;;;;;;4935012;29;20059;-64
2022/04/24 05:10:59;;;;;;;2.13;1.85;;;;;;;;;;4931952;29;20103;-63
2022/04/24 05:13:27;;;;;;;7.10;2.65;;;;;;;;;;4933849;29;20056;-64
2022/04/24 05:15:56;;;;;;;2.40;1.60;;;;;;;;;;4934819;29;20070;-64
2022/04/24 05:18:26;;;;;;;3.83;2.65;;;;;;;;;;4930898;29;20051;-64
2022/04/24 05:20:55;;;;;;;4.70;2.88;;;;;;;;;;4934586;29;20508;-65
2022/04/24 05:23:23;;;;;;;4.30;2.03;;;;;;;;;;4935206;29;20530;-66
2022/04/24 05:25:52;;;;;;;1.95;1.65;;;;;;;;;;4934128;29;20111;-70
2022/04/24 05:28:20;;;;;;;3.53;1.75;;;;;;;;;;4925676;29;22007;-67
2022/04/24 05:30:49;;;;;;;1.98;1.67;;;;;;;;;;4932243;29;20078;-67
2022/04/24 05:33:18;;;;;;;2.42;1.42;;;;;;;;;;4939110;29;20035;-68
2022/04/24 05:35:49;;;;;;;4.75;1.98;;;;;;;;;;4939140;29;20127;-68
2022/04/24 05:38:18;;;;;;;3.08;1.75;;;;;;;;;;4937533;29;20070;-68
2022/04/24 05:40:46;;;;;;;2.78;2.42;;;;;;;;;;4938380;29;20107;-69
2022/04/24 05:43:15;;;;;;;4.65;2.03;;;;;;;;;;4922418;29;20048;-70
2022/04/24 05:45:46;;;;;;;4.25;2.40;;;;;;;;;;4925360;29;20048;-68
2022/04/24 05:48:15;;;;;;;6.90;3.40;;;;;;;;;;4939012;29;20129;-65
2022/04/24 05:50:44;;;;;;;2.67;1.65;;;;;;;;;;4942336;29;20052;-66
2022/04/24 05:53:14;;;;;;;3.67;1.70;;;;;;;;;;4926636;29;20099;-67
2022/04/24 05:55:43;;;;;;;4.95;1.48;;;;;;;;;;4923781;29;20453;-66
2022/04/24 05:58:14;;;;;;;3.53;1.65;;;;;;;;;;4925915;29;20090;-64
2022/04/24 06:00:44;;;;;;;1.25;1.15;;;;;;;;;;4926548;29;20044;-64
2022/04/24 06:03:11;;;;;;;5.65;2.50;;;;;;;;;;4926152;29;20044;-64
2022/04/24 06:05:39;;;;;;;3.95;1.20;;;;;;;;;;4920686;29;20064;-67
2022/04/24 06:08:07;;;;;;;2.10;1.20;;;;;;;;;;4921390;29;20059;-67
2022/04/24 06:10:36;;;;;;;4.40;1.67;;;;;;;;;;4920870;29;20048;-68
2022/04/24 06:13:05;;;;;;;3.80;1.65;;;;;;;;;;4923045;29;20133;-67
2022/04/24 06:15:34;;;;;;;2.17;1.70;;;;;;;;;;4931404;29;20070;-67
2022/04/24 06:18:03;;;;;;;2.17;1.10;;;;;;;;;;4929910;29;20056;-67
2022/04/24 06:20:31;;;;;;;4.00;1.13;;;;;;;;;;4927883;29;20568;-67
2022/04/24 06:23:04;;;;;;;1.80;1.20;;;;;;;;;;4935033;29;20051;-67
2022/04/24 06:25:33;;;;;;;3.28;1.10;;;;;;;;;;4932277;29;20040;-66
2022/04/24 06:28:02;;;;;;;6.88;1.30;;;;;;;;;;4933979;29;20048;-66
2022/04/24 06:30:31;;;;;;;3.22;1.30;;;;;;;;;;4934894;29;20112;-67
2022/04/24 06:33:03;;;;;;;2.13;1.75;;;;;;;;;;4934544;29;20075;-65
2022/04/24 06:35:30;;;;;;;3.25;1.08;;;;;;;;;;4933104;29;20044;-66
2022/04/24 06:37:59;;;;;;;5.65;1.27;;;;;;;;;;4936417;29;20577;-66
2022/04/24 06:40:27;;;;;;;1.95;1.20;;;;;;;;;;4934532;29;20055;-67
2022/04/24 06:43:04;;;;;;;2.08;1.40;;;;;;;;;;4935550;29;20059;-65
2022/04/24 06:45:35;;;;;;;4.80;1.70;;;;;;;;;;4934961;29;20031;-66
2022/04/24 06:48:05;;;;;;;2.45;1.70;;;;;;;;;;4936359;29;20396;-67
2022/04/24 06:50:34;;;;;;;2.38;1.20;;;;;;;;;;4925465;29;20063;-67
2022/04/24 06:53:07;;;;;;;4.75;2.38;;;;;;;;;;4927962;29;20404;-66
2022/04/24 06:55:37;;;;;;;3.30;2.00;;;;;;;;;;4934354;29;20141;-64
2022/04/24 06:58:08;;;;;;;5.45;2.17;;;;;;;;;;4931881;29;20134;-66
2022/04/24 07:00:37;;;;;;;2.80;2.00;;;;;;;;;;4934253;29;20104;-67
2022/04/24 07:03:26;;;;;;;5.28;1.40;;;;;;;;;;4926557;29;20048;-67
2022/04/24 07:05:57;;;;;;;4.60;1.85;;;;;;;;;;4931837;29;20080;-66
2022/04/24 07:08:24;;;;;;;1.77;1.35;;;;;;;;;;4932386;29;20040;-64
2022/04/24 07:10:53;;;;;;;2.33;1.10;;;;;;;;;;4939490;29;20052;-65
2022/04/24 07:13:23;;;;;;;1.40;1.25;;;;;;;;;;4937857;29;20107;-66
2022/04/24 07:15:53;;;;;;;3.50;2.78;;;;;;;;;;4938309;29;20118;-65
2022/04/24 07:18:21;;;;;;;4.97;1.60;;;;;;;;;;4930693;29;20044;-66
2022/04/24 07:20:55;;;;;;;2.15;1.48;;;;;;;;;;4934743;29;20059;-63
2022/04/24 07:23:23;;;;;;;3.35;1.23;;;;;;;;;;4937439;29;20043;-66
2022/04/24 07:25:52;;;;;;;3.78;1.88;;;;;;;;;;4937073;29;20051;-67
2022/04/24 07:28:22;;;;;;;3.03;1.17;;;;;;;;;;4931263;29;20063;-66
2022/04/24 07:30:51;;;;;;;2.15;0.90;;;;;;;;;;4931382;29;20056;-64
2022/04/24 07:33:19;;;;;;;1.85;1.08;;;;;;;;;;4929393;29;20060;-65
2022/04/24 07:35:47;;;;;;;1.35;1.00;;;;;;;;;;4929220;29;20111;-64
2022/04/24 07:38:15;;;;;;;4.72;2.10;;;;;;;;;;4927412;29;20082;-64
2022/04/24 07:40:43;;;;;;;2.55;1.20;;;;;;;;;;4929576;29;20052;-65
2022/04/24 07:43:13;;;;;;;2.80;1.25;;;;;;;;;;4929970;29;20044;-63
2022/04/24 07:45:44;;;;;;;12.20;2.97;;;;;;;;;;4935477;29;20047;-65
2022/04/24 07:48:13;;;;;;;3.38;2.03;;;;;;;;;;4936579;29;20520;-65
2022/04/24 07:50:46;;;;;;;0.80;0.80;;;;;;;;;;4931047;29;20411;-65
2022/04/24 07:53:15;;;;;;;0.93;0.80;;;;;;;;;;4931850;29;20056;-65
2022/04/24 07:55:44;;;;;;;2.30;1.00;;;;;;;;;;4930544;29;20594;-66
2022/04/24 07:58:13;;;;;;;1.27;1.00;;;;;;;;;;4930990;29;20052;-66
2022/04/24 08:00:43;;;;;;;4.93;0.80;;;;;;;;;;4937055;29;20084;-66
2022/04/24 08:03:13;;;;;;;4.32;1.17;;;;;;;;;;4925430;29;20079;-66
2022/04/24 08:05:50;;;;;;;3.13;2.25;;;;;;;;;;4933777;29;20044;-64
2022/04/24 08:08:19;;;;;;;1.33;1.20;;;;;;;;;;4936429;29;20054;-66
2022/04/24 08:11:09;;;;;;;6.10;5.10;;;;;;;;;;4929539;29;20079;-66
2022/04/24 08:13:37;;;;;;;6.63;1.70;;;;;;;;;;4927792;29;20048;-66
2022/04/24 08:16:06;;;;;;;2.70;2.28;;;;;;;;;;4933925;29;20039;-67
2022/04/24 08:18:35;;;;;;;2.92;2.72;;;;;;;;;;4934120;29;20043;-66
2022/04/24 08:21:04;;;;;;;2.30;2.10;;;;;;;;;;4929266;29;20456;-69
2022/04/24 08:23:35;;;;;;;3.95;1.50;;;;;;;;;;4931215;29;20052;-67
2022/04/24 08:26:06;;;;;;;4.40;1.63;;;;;;;;;;4927866;29;20107;-66
2022/04/24 08:28:34;;;;;;;6.35;1.90;;;;;;;;;;4936157;29;20102;-66
2022/04/24 08:31:02;;;;;;;7.45;2.10;;;;;;;;;;4922354;29;20044;-65
2022/04/24 08:33:31;;;;;;;7.78;1.83;;;;;;;;;;4932188;29;20043;-66
2022/04/24 08:35:59;;;;;;;2.35;1.65;;;;;;;;;;4930607;29;20056;-67
2022/04/24 08:38:30;;;;;;;2.63;1.50;;;;;;;;;;4932965;29;20056;-69
2022/04/24 08:40:59;;;;;;;1.60;1.50;;;;;;;;;;4932656;29;20060;-68
2022/04/24 08:43:27;;;;;;;1.55;1.42;;;;;;;;;;4938051;29;20098;-69
2022/04/24 08:45:55;;;;;;;1.83;1.50;;;;;;;;;;4926293;29;20044;-67
2022/04/24 08:48:23;;;;;;;6.18;2.25;;;;;;;;;;4933233;29;20046;-67
2022/04/24 08:50:58;;;;;;;5.93;1.98;;;;;;;;;;4933557;29;20044;-67
2022/04/24 08:53:29;;;;;;;1.65;1.55;;;;;;;;;;4935615;29;20048;-66
2022/04/24 08:55:58;;;;;;;8.55;1.60;;;;;;;;;;4932896;29;20044;-66
2022/04/24 08:58:27;;;;;;;8.52;1.90;;;;;;;;;;4931290;29;20051;-66
2022/04/24 09:00:56;;;;;;;6.00;2.95;;;;;;;;;;4928477;29;20040;-66
2022/04/24 09:03:26;;;;;;;6.70;2.60;;;;;;;;;;4932854;29;20056;-67
2022/04/24 09:05:55;;;;;;;3.25;2.13;;;;;;;;;;4931020;29;20095;-66
2022/04/24 09:08:24;;;;;;;4.22;1.92;;;;;;;;;;4933523;29;20051;-66
2022/04/24 09:11:17;;;;;;;3.60;1.80;;;;;;;;;;4931622;29;20092;-65
2022/04/24 09:16:36;;;;;;;4.43;2.30;;;;;;;;;;4935461;29;20593;-66
2022/04/24 09:19:15;;;;;;;2.80;1.88;;;;;;;;;;4933582;29;20051;-67
2022/04/24 09:21:45;;;;;;;2.08;1.50;;;;;;;;;;4934156;29;20044;-66
2022/04/24 09:24:13;;;;;;;1.63;1.50;;;;;;;;;;4933429;29;20055;-67
2022/04/24 09:26:55;;;;;;;3.25;1.10;;;;;;;;;;4934216;29;20436;-66
2022/04/24 09:29:25;;;;;;;0.93;0.82;;;;;;;;;;4932445;29;20555;-66
2022/04/24 09:31:54;;;;;;;0.70;0.70;;;;;;;;;;4932036;29;20110;-66
2022/04/24 09:34:31;;;;;;;1.33;1.23;;;;;;;;;;4931762;29;20050;-65
2022/04/24 09:37:05;;;;;;;1.67;1.58;;;;;;;;;;4937912;29;20473;-67
2022/04/24 09:39:36;;;;;;;3.10;1.83;;;;;;;;;;4921151;29;20091;-65
2022/04/24 09:42:07;;;;;;;1.10;1.00;;;;;;;;;;4940084;29;20052;-66
2022/04/24 09:44:52;;;;;;;2.20;1.20;;;;;;;;;;4928931;29;20115;-65
2022/04/24 09:47:39;;;;;;;1.15;1.15;;;;;;;;;;4932801;29;20411;-66
2022/04/24 09:50:10;;;;;;;4.50;2.00;;;;;;;;;;4940636;29;20072;-65
2022/04/24 09:52:45;;;;;;;1.10;1.00;;;;;;;;;;4930381;29;20056;-65
2022/04/24 09:55:14;;;;;;;1.30;1.30;;;;;;;;;;4929248;29;20051;-65
2022/04/24 09:57:42;;;;;;;2.95;1.63;;;;;;;;;;4928536;29;20044;-67
2022/04/24 10:00:10;;;;;;;1.73;1.50;;;;;;;;;;4936350;29;20052;-67
2022/04/24 10:02:41;;;;;;;1.90;1.80;;;;;;;;;;4937467;29;20047;-68
2022/04/24 10:05:10;;;;;;;3.00;1.50;;;;;;;;;;4937473;29;20052;-67
2022/04/24 10:07:39;;;;;;;1.10;1.10;;;;;;;;;;4932173;29;20058;-66
2022/04/24 10:10:09;;;;;;;2.05;1.20;;;;;;;;;;4925232;29;20047;-63
2022/04/24 10:12:38;;;;;;;1.20;1.10;;;;;;;;;;4918780;29;20115;-64
2022/04/24 10:15:13;;;;;;;3.45;1.98;;;;;;;;;;4920466;29;20044;-63
2022/04/24 10:17:56;;;;;;;3.00;1.23;;;;;;;;;;4934943;29;20052;-62
2022/04/24 10:20:47;;;;;;;1.33;1.23;;;;;;;;;;4936890;29;20481;-63
2022/04/24 10:23:27;;;;;;;4.88;4.28;;;;;;;;;;4937736;29;20058;-64
2022/04/24 10:25:56;;;;;;;1.08;1.00;;;;;;;;;;4929096;29;20048;-61
2022/04/24 10:28:35;;;;;;;2.08;1.15;;;;;;;;;;4921085;29;20195;-62
2022/04/24 10:31:05;;;;;;;2.45;1.20;;;;;;;;;;4928853;29;20489;-61
2022/04/24 10:33:35;;;;;;;1.25;1.15;;;;;;;;;;4930104;29;20060;-61
2022/04/24 10:36:04;;;;;;;2.65;2.45;;;;;;;;;;4929896;29;20448;-61
2022/04/24 10:38:46;;;;;;;2.78;1.15;;;;;;;;;;4931664;29;20083;-62
2022/04/24 10:41:16;;;;;;;0.88;0.88;;;;;;;;;;4929275;29;20052;-62
2022/04/24 10:43:52;;;;;;;0.73;0.60;;;;;;;;;;4928702;29;20047;-68
2022/04/24 10:46:33;;;;;;;1.05;0.95;;;;;;;;;;4934092;29;20055;-61
2022/04/24 10:49:14;;;;;;;0.68;0.68;;;;;;;;;;4932608;29;20087;-61
2022/04/24 10:51:45;;;;;;;0.70;0.70;;;;;;;;;;4937827;29;20426;-63
2022/04/24 10:54:16;;;;;;;1.75;0.85;;;;;;;;;;4931722;29;20044;-62
2022/04/24 10:56:51;;;;;;;3.38;2.83;;;;;;;;;;4933411;29;20126;-62
2022/04/24 10:59:22;;;;;;;3.28;2.95;;;;;;;;;;4934968;29;20206;-61
2022/04/24 11:01:52;;;;;;;8.25;7.50;;;;;;;;;;4935821;29;20051;-62
2022/04/24 11:04:22;;;;;;;2.72;1.02;;;;;;;;;;4933844;29;20028;-62
2022/04/24 11:06:54;;;;;;;0.80;0.80;;;;;;;;;;4931623;29;20060;-62
2022/04/24 11:09:23;;;;;;;0.85;0.85;;;;;;;;;;4934536;29;20048;-62
2022/04/24 11:12:04;;;;;;;1.00;0.80;;;;;;;;;;4938055;29;20059;-62
2022/04/24 11:14:32;;;;;;;1.85;0.90;;;;;;;;;;4938604;29;20527;-62
2022/04/24 11:17:02;;;;;;;0.70;0.70;;;;;;;;;;4934828;29;20044;-60
2022/04/24 11:19:35;;;;;;;2.22;0.90;;;;;;;;;;4935044;29;20036;-62
2022/04/24 11:22:08;;;;;;;1.00;1.00;;;;;;;;;;4935009;29;20220;-62
2022/04/24 11:24:40;;;;;;;1.30;0.90;;;;;;;;;;4934109;29;20054;-62
2022/04/24 11:27:11;;;;;;;0.80;0.80;;;;;;;;;;4933464;29;20194;-64
2022/04/24 11:29:42;;;;;;;2.75;1.52;;;;;;;;;;4930820;29;20071;-63
2022/04/24 11:32:13;;;;;;;3.08;1.17;;;;;;;;;;4934967;29;20052;-63
2022/04/24 11:34:41;;;;;;;1.30;1.15;;;;;;;;;;4929828;29;20095;-64
2022/04/24 11:37:09;;;;;;;0.95;0.95;;;;;;;;;;4929357;29;20443;-63
2022/04/24 11:39:41;;;;;;;1.20;1.10;;;;;;;;;;4931974;29;20544;-62
2022/04/24 11:42:10;;;;;;;69.00;49.38;;;;;;;;;;4933074;29;20084;-65
2022/04/24 11:50:15;;;;;;;1.25;1.10;;;;;;;;;;4925689;29;20040;-65
2022/04/24 11:53:05;;;;;;;1.65;1.55;;;;;;;;;;4933277;29;20059;-63
2022/04/24 11:58:24;;;;;;;1.80;1.00;;;;;;;;;;4923731;29;20048;-66
2022/04/24 12:00:52;;;;;;;39.25;30.08;;;;;;;;;;4927113;29;20044;-65
2022/04/24 12:03:23;;;;;;;1.33;1.20;;;;;;;;;;4924143;29;20059;-67
2022/04/24 12:06:02;;;;;;;1.02;0.95;;;;;;;;;;4923347;29;20052;-66
2022/04/24 12:08:40;;;;;;;2.13;1.25;;;;;;;;;;4923089;29;20048;-65
2022/04/24 12:11:07;;;;;;;1.38;1.10;;;;;;;;;;4923242;29;20059;-66
2022/04/24 12:13:36;;;;;;;1.27;1.17;;;;;;;;;;4923197;29;20583;-66
2022/04/24 12:16:05;;;;;;;14.77;9.75;;;;;;;;;;4919374;29;20060;-66
2022/04/24 12:18:33;;;;;;;1.73;1.30;;;;;;;;;;4922294;29;20091;-63
2022/04/24 12:21:01;;;;;;;2.25;1.60;;;;;;;;;;4930623;29;20052;-64
2022/04/24 12:23:31;;;;;;;2.53;2.33;;;;;;;;;;4930639;29;20036;-64
2022/04/24 12:26:02;;;;;;;15.50;13.98;;;;;;;;;;4931391;29;20048;-65
2022/04/24 12:28:32;;;;;;;2.05;1.63;;;;;;;;;;4929181;29;20055;-64
2022/04/24 12:31:02;;;;;;;2.38;1.02;;;;;;;;;;4933511;29;20076;-64
2022/04/24 12:33:32;;;;;;;1.38;1.05;;;;;;;;;;4931175;29;20044;-65
2022/04/24 12:36:13;;;;;;;2.25;1.23;;;;;;;;;;4929280;29;20130;-64
2022/04/24 12:38:41;;;;;;;7.88;4.38;;;;;;;;;;4930175;29;20455;-65
2022/04/24 12:41:13;;;;;;;1.33;1.20;;;;;;;;;;4927253;29;20448;-64
2022/04/24 12:43:41;;;;;;;2.90;1.73;;;;;;;;;;4928414;29;20054;-64
2022/04/24 12:46:10;;;;;;;1.25;1.17;;;;;;;;;;4928751;29;20052;-65
2022/04/24 12:48:52;;;;;;;1.25;1.15;;;;;;;;;;4929366;29;20051;-64
2022/04/24 12:51:23;;;;;;;1.45;1.15;;;;;;;;;;4920670;29;20076;-65
2022/04/24 12:53:53;;;;;;;1.20;1.10;;;;;;;;;;4925641;29;20134;-65
2022/04/24 12:56:23;;;;;;;10.25;8.05;;;;;;;;;;4924621;29;20076;-65
2022/04/24 12:58:51;;;;;;;4.72;3.25;;;;;;;;;;4926499;29;20040;-64
2022/04/24 13:01:24;;;;;;;2.63;1.25;;;;;;;;;;4930140;29;20110;-64
2022/04/24 13:03:55;;;;;;;1.58;1.48;;;;;;;;;;4929890;29;20475;-65
2022/04/24 13:06:25;;;;;;;1.17;1.08;;;;;;;;;;4927351;29;20039;-65
2022/04/24 13:08:53;;;;;;;4.18;1.83;;;;;;;;;;4929548;29;20051;-65
2022/04/24 13:11:26;;;;;;;2.15;1.52;;;;;;;;;;4920570;29;20480;-65
2022/04/24 13:13:55;;;;;;;1.73;0.85;;;;;;;;;;4930016;29;20110;-63
2022/04/24 13:19:10;;;;;;;0.85;0.85;;;;;;;;;;4926364;29;20052;-65
2022/04/24 13:21:47;;;;;;;2.33;1.08;;;;;;;;;;4922158;29;20389;-63
2022/04/24 13:24:17;;;;;;;1.15;1.05;;;;;;;;;;4923121;29;20052;-64
2022/04/24 13:26:46;;;;;;;1.45;1.30;;;;;;;;;;4923685;29;20060;-62
2022/04/24 13:29:14;;;;;;;1.30;1.20;;;;;;;;;;4932049;29;20501;-64
2022/04/24 13:31:49;;;;;;;1.73;1.30;;;;;;;;;;4934072;29;20054;-64
2022/04/24 13:34:19;;;;;;;2.28;1.27;;;;;;;;;;4924699;29;20055;-63
2022/04/24 13:38:17;;;;;;;1.40;1.30;;;;;;;;;;4928009;29;20052;-64
2022/04/24 13:39:37;;;;;;;1.45;1.35;;;;;;;;;;4930365;29;20415;-64
2022/04/24 13:42:06;;;;;;;2.83;1.80;;;;;;;;;;4926400;29;20063;-64
2022/04/24 13:44:34;;;;;;;3.60;1.70;;;;;;;;;;4920254;29;20436;-63
2022/04/24 13:47:06;;;;;;;1.60;1.50;;;;;;;;;;4924070;29;20052;-64
2022/04/24 13:49:34;;;;;;;7.45;1.58;;;;;;;;;;4922459;29;20523;-63
2022/04/24 13:52:04;;;;;;;1.50;1.40;;;;;;;;;;4921298;29;20056;-64
2022/04/24 13:54:32;;;;;;;2.80;1.40;;;;;;;;;;4920605;29;20048;-64
2022/04/24 13:57:01;;;;;;;3.35;1.60;;;;;;;;;;4920461;29;20068;-64
2022/04/24 13:59:29;;;;;;;2.97;1.73;;;;;;;;;;4931988;29;20078;-64
2022/04/24 14:02:00;;;;;;;1.23;1.15;;;;;;;;;;4921319;29;20056;-63
2022/04/24 14:04:29;;;;;;;1.83;1.73;;;;;;;;;;4921195;29;20873;-64
2022/04/24 14:07:00;;;;;;;3.53;1.90;;;;;;;;;;4920621;29;20052;-66
2022/04/24 14:09:28;;;;;;;1.60;1.38;;;;;;;;;;4921828;29;20487;-64
2022/04/24 14:11:57;;;;;;;2.60;1.50;;;;;;;;;;4921503;29;20051;-63
2022/04/24 14:14:26;;;;;;;9.40;1.40;;;;;;;;;;4922688;29;20428;-63
2022/04/24 14:16:54;;;;;;;3.72;1.95;;;;;;;;;;4921849;29;20481;-63
2022/04/24 14:19:22;;;;;;;1.88;1.40;;;;;;;;;;4923242;29;20048;-63
2022/04/24 14:21:55;;;;;;;1.20;1.10;;;;;;;;;;4921306;29;20048;-63
2022/04/24 14:24:23;;;;;;;1.23;1.13;;;;;;;;;;4921447;29;20045;-63
2022/04/24 14:26:54;;;;;;;0.70;0.70;;;;;;;;;;4921016;29;20052;-63
2022/04/24 14:29:22;;;;;;;0.70;0.70;;;;;;;;;;4920791;29;20127;-63
2022/04/24 14:31:51;;;;;;;0.57;0.57;;;;;;;;;;4930697;29;20062;-63
2022/04/24 14:34:21;;;;;;;0.60;0.60;;;;;;;;;;4932692;29;20099;-63
2022/04/24 14:36:49;;;;;;;0.85;0.60;;;;;;;;;;4930109;29;20059;-63
2022/04/24 14:39:18;;;;;;;0.70;0.70;;;;;;;;;;4919148;29;20103;-63
2022/04/24 14:41:48;;;;;;;0.50;0.50;;;;;;;;;;4923294;29;20088;-63
2022/04/24 14:44:17;;;;;;;0.60;0.60;;;;;;;;;;4924619;29;20063;-63
2022/04/24 14:57:54;;;;;;;0.65;0.57;;;;;;;;;;4927340;29;20135;-64
2022/04/24 15:00:28;;;;;;;0.50;0.50;;;;;;;;;;4920074;29;20052;-64
2022/04/24 15:02:56;;;;;;;0.85;0.60;;;;;;;;;;4931975;29;20055;-63
2022/04/24 15:05:25;;;;;;;0.55;0.55;;;;;;;;;;4923137;29;20056;-65
2022/04/24 15:07:53;;;;;;;1.23;0.80;;;;;;;;;;4920698;29;20059;-64
2022/04/24 15:10:22;;;;;;;0.75;0.75;;;;;;;;;;4921054;29;20056;-63
2022/04/24 15:12:52;;;;;;;0.98;0.85;;;;;;;;;;4927961;29;20516;-63
2022/04/24 15:15:21;;;;;;;0.70;0.70;;;;;;;;;;4927544;29;20052;-63
2022/04/24 15:17:50;;;;;;;1.10;1.00;;;;;;;;;;4928885;29;20464;-67
2022/04/24 15:20:18;;;;;;;0.70;0.70;;;;;;;;;;4923654;29;20056;-66
2022/04/24 15:22:46;;;;;;;1.00;0.90;;;;;;;;;;4920606;29;20119;-67